Northern Power — A8TL6 — position and weather

sailwx.info

Track history (hours):
 
Tides and Currents Weather Stations Pressure Air Temp Water Temp Dewpoint Dewpoint Depression Visibility Wind Speed Wind Dir Waves Ship Positions

Northern Power

Last reported at 2016-Dec-16 02:33 UTC. Time now 2017-Jan-19 12:58 UTC.
Position N 14°41' W 017°23'.
Warning: this ship's position is 34 days out of date.

Length 264 m; draft 10.6 m.

Type: Cargo ship. MMSI: 636091835.

Date/timePositionNaut miles runAvg speedWind from/ knotsBaromVisibWave heightAir tempDewpointWater temp
2016-Dec-16 02:33N 14°41' W 017°23'3 2.4
2016-Dec-16 01:25N 14°41' W 017°26'0 0.0
2016-Dec-16 00:22N 14°41' W 017°26'0 0.0
2016-Dec-15 23:28N 14°41' W 017°26'0 0.0
2016-Dec-15 22:28N 14°41' W 017°26'0 0.0
2016-Dec-15 21:28N 14°41' W 017°26'0 0.0
2016-Dec-15 20:28N 14°41' W 017°26'0 0.0
2016-Dec-15 19:28N 14°41' W 017°26'0 0.0
2016-Dec-15 18:31N 14°41' W 017°26'0 0.0
2016-Dec-15 17:31N 14°41' W 017°26'0 0.0
2016-Dec-15 16:31N 14°41' W 017°26'0 0.0
2016-Dec-15 15:31N 14°41' W 017°26'0 0.0
2016-Dec-15 14:31N 14°41' W 017°26'0 0.0
2016-Dec-15 13:34N 14°41' W 017°26'0 0.0
2016-Dec-15 12:31N 14°41' W 017°26'0 0.0
2016-Dec-15 11:25N 14°41' W 017°26'0 0.0
2016-Dec-15 10:33N 14°41' W 017°26'0 0.0
2016-Dec-15 09:33N 14°41' W 017°26'0 0.0
2016-Dec-15 08:33N 14°41' W 017°26'0 0.1
2016-Dec-15 07:33N 14°41' W 017°26'6 4.8
2016-Dec-15 06:22N 14°38' W 017°20'0 0.3
2016-Dec-15 05:26N 14°38' W 017°20'0 0.0
2016-Dec-15 04:32N 14°38' W 017°20'0 0.0
2016-Dec-15 03:32N 14°38' W 017°20'0 0.0
2016-Dec-15 00:32N 14°38' W 017°20'0 0.0
2016-Dec-14 23:32N 14°38' W 017°20'0 0.0
2016-Dec-14 21:23N 14°38' W 017°20'0 0.1
2016-Dec-14 20:32N 14°38' W 017°20'0 0.0
2016-Dec-14 19:29N 14°38' W 017°20'0 0.0
2016-Dec-14 18:32N 14°38' W 017°20'0 0.0
2016-Dec-14 14:05N 14°38' W 017°21'0 0.0
2016-Dec-14 06:32N 14°38' W 017°21'0 0.0
2016-Dec-14 05:32N 14°38' W 017°20'0 0.0
2016-Dec-14 04:29N 14°38' W 017°20'0 0.0
2016-Dec-14 03:32N 14°38' W 017°20'0 0.0
2016-Dec-14 01:29N 14°38' W 017°20'0 0.0
2016-Dec-14 00:23N 14°38' W 017°20'0 0.0
2016-Dec-13 20:26N 14°38' W 017°20'0 0.0
2016-Dec-13 19:29N 14°38' W 017°20'0 0.1
2016-Dec-13 18:23N 14°38' W 017°20'0 0.0
2016-Dec-13 17:26N 14°38' W 017°20'0 0.0
2016-Dec-13 16:14N 14°38' W 017°20'0 0.0
2016-Dec-13 15:20N 14°38' W 017°20'0 0.1
2016-Dec-13 14:32N 14°38' W 017°20'0 0.1
2016-Dec-13 13:32N 14°38' W 017°20'0 0.1
2016-Dec-13 12:29N 14°38' W 017°20'0 0.0
2016-Dec-13 11:17N 14°38' W 017°20'0 0.0
2016-Dec-13 10:32N 14°38' W 017°20'0 0.0
2016-Dec-13 09:17N 14°38' W 017°20'0 0.0
2016-Dec-13 07:32N 14°38' W 017°20'0 0.0
2016-Dec-13 06:32N 14°38' W 017°20'0 0.0
2016-Dec-13 05:32N 14°38' W 017°20'0 0.0
2016-Dec-13 04:23N 14°38' W 017°20'0 0.0
2016-Dec-13 01:05N 14°38' W 017°20'0 0.0
2016-Dec-13 00:29N 14°38' W 017°20'0 0.0
2016-Dec-12 22:23N 14°38' W 017°20'0 0.0
2016-Dec-12 21:11N 14°38' W 017°20'0 0.0
2016-Dec-12 20:26N 14°38' W 017°20'0 0.0
2016-Dec-12 19:11N 14°38' W 017°20'1 0.1
2016-Dec-12 11:26N 14°38' W 017°21'  
2016-Dec-10 01:08N 26°54' W 014°34'1015.4
2016-Dec-10 00:29N 27°01' W 014°27'1515.9
2016-Dec-09 23:34N 27°13' W 014°16'1615.8
2016-Dec-09 22:33N 27°24' W 014°05'1615.8
2016-Dec-09 21:33N 27°36' W 013°53'1615.7
2016-Dec-09 20:34N 27°48' W 013°42'1515.4
2016-Dec-09 19:34N 28°01' W 013°31'1515.3
2016-Dec-09 18:34N 28°14' W 013°22'59616.1
2016-Dec-08 05:34N 35°55' W 005°56'1818.0
2016-Dec-08 04:34N 35°58' W 005°34'1312.6
2016-Dec-08 03:34N 36°08' W 005°24'1 1.5
2016-Dec-08 02:34N 36°08' W 005°26'0 0.0
2016-Dec-08 01:29N 36°08' W 005°26'0 0.0
2016-Dec-07 22:23N 36°08' W 005°26'0 0.0
2016-Dec-07 21:23N 36°08' W 005°26'0 0.0
2016-Dec-07 20:11N 36°08' W 005°26'0 0.0
2016-Dec-07 18:23N 36°08' W 005°26'0 0.0
2016-Dec-07 14:08N 36°08' W 005°26'0 0.0
2016-Dec-07 07:14N 36°08' W 005°26'0 0.5
2016-Dec-07 06:29N 36°09' W 005°26'4 4.1
2016-Dec-07 05:33N 36°05' W 005°24'0 0.1
2016-Dec-07 04:33N 36°05' W 005°24'0 0.2
2016-Dec-07 03:30N 36°05' W 005°24'0 0.1
2016-Dec-07 02:27N 36°05' W 005°24'0 0.0
2016-Dec-07 01:33N 36°05' W 005°24'0 0.2
2016-Dec-07 00:24N 36°05' W 005°24'0 0.0
2016-Dec-06 23:30N 36°05' W 005°24'0 0.0
2016-Dec-06 22:33N 36°05' W 005°24'0 0.1
2016-Dec-06 21:33N 36°05' W 005°24'0 0.0
2016-Dec-06 20:33N 36°05' W 005°24'0 0.1
2016-Dec-06 18:33N 36°05' W 005°24'0 0.0
2016-Dec-06 16:15N 36°05' W 005°24'0 0.3
2016-Dec-06 15:23N 36°05' W 005°24'0 0.0
2016-Dec-06 14:18N 36°05' W 005°24'0 0.0
2016-Dec-06 13:30N 36°05' W 005°24'0 0.1
2016-Dec-06 11:12N 36°05' W 005°24'0 0.0
2016-Dec-06 10:24N 36°05' W 005°24'0 0.1
2016-Dec-06 09:30N 36°05' W 005°24'0 0.1
2016-Dec-06 08:06N 36°05' W 005°24'0 0.0
2016-Dec-06 05:33N 36°05' W 005°24'0 0.0
2016-Dec-06 04:27N 36°05' W 005°24'0 0.1
2016-Dec-06 03:12N 36°05' W 005°24'  
Track history (hours):
 
Tides and Currents Weather Stations Pressure Air Temp Water Temp Dewpoint Dewpoint Depression Visibility Wind Speed Wind Dir Waves Ship Positions

Northern Power

Last reported at 2016-Dec-16 02:33 UTC. Time now 2017-Jan-19 12:58 UTC.
Position N 14°41' W 017°23'.
Warning: this ship's position is 34 days out of date.

Length 264 m; draft 10.6 m.

Type: Cargo ship. MMSI: 636091835.

Date/timePositionNaut miles runAvg speedWind from/ knotsBaromVisibWave heightAir tempDewpointWater temp
2016-Dec-16 02:33N 14°41' W 017°23'3 2.4
2016-Dec-16 01:25N 14°41' W 017°26'0 0.0
2016-Dec-16 00:22N 14°41' W 017°26'0 0.0
2016-Dec-15 23:28N 14°41' W 017°26'0 0.0
2016-Dec-15 22:28N 14°41' W 017°26'0 0.0
2016-Dec-15 21:28N 14°41' W 017°26'0 0.0
2016-Dec-15 20:28N 14°41' W 017°26'0 0.0
2016-Dec-15 19:28N 14°41' W 017°26'0 0.0
2016-Dec-15 18:31N 14°41' W 017°26'0 0.0
2016-Dec-15 17:31N 14°41' W 017°26'0 0.0
2016-Dec-15 16:31N 14°41' W 017°26'0 0.0
2016-Dec-15 15:31N 14°41' W 017°26'0 0.0
2016-Dec-15 14:31N 14°41' W 017°26'0 0.0
2016-Dec-15 13:34N 14°41' W 017°26'0 0.0
2016-Dec-15 12:31N 14°41' W 017°26'0 0.0
2016-Dec-15 11:25N 14°41' W 017°26'0 0.0
2016-Dec-15 10:33N 14°41' W 017°26'0 0.0
2016-Dec-15 09:33N 14°41' W 017°26'0 0.0
2016-Dec-15 08:33N 14°41' W 017°26'0 0.1
2016-Dec-15 07:33N 14°41' W 017°26'6 4.8
2016-Dec-15 06:22N 14°38' W 017°20'0 0.3
2016-Dec-15 05:26N 14°38' W 017°20'0 0.0
2016-Dec-15 04:32N 14°38' W 017°20'0 0.0
2016-Dec-15 03:32N 14°38' W 017°20'0 0.0
2016-Dec-15 00:32N 14°38' W 017°20'0 0.0
2016-Dec-14 23:32N 14°38' W 017°20'0 0.0
2016-Dec-14 21:23N 14°38' W 017°20'0 0.1
2016-Dec-14 20:32N 14°38' W 017°20'0 0.0
2016-Dec-14 19:29N 14°38' W 017°20'0 0.0
2016-Dec-14 18:32N 14°38' W 017°20'0 0.0
2016-Dec-14 14:05N 14°38' W 017°21'0 0.0
2016-Dec-14 06:32N 14°38' W 017°21'0 0.0
2016-Dec-14 05:32N 14°38' W 017°20'0 0.0
2016-Dec-14 04:29N 14°38' W 017°20'0 0.0
2016-Dec-14 03:32N 14°38' W 017°20'0 0.0
2016-Dec-14 01:29N 14°38' W 017°20'0 0.0
2016-Dec-14 00:23N 14°38' W 017°20'0 0.0
2016-Dec-13 20:26N 14°38' W 017°20'0 0.0
2016-Dec-13 19:29N 14°38' W 017°20'0 0.1
2016-Dec-13 18:23N 14°38' W 017°20'0 0.0
2016-Dec-13 17:26N 14°38' W 017°20'0 0.0
2016-Dec-13 16:14N 14°38' W 017°20'0 0.0
2016-Dec-13 15:20N 14°38' W 017°20'0 0.1
2016-Dec-13 14:32N 14°38' W 017°20'0 0.1
2016-Dec-13 13:32N 14°38' W 017°20'0 0.1
2016-Dec-13 12:29N 14°38' W 017°20'0 0.0
2016-Dec-13 11:17N 14°38' W 017°20'0 0.0
2016-Dec-13 10:32N 14°38' W 017°20'0 0.0
2016-Dec-13 09:17N 14°38' W 017°20'0 0.0
2016-Dec-13 07:32N 14°38' W 017°20'0 0.0
2016-Dec-13 06:32N 14°38' W 017°20'0 0.0
2016-Dec-13 05:32N 14°38' W 017°20'0 0.0
2016-Dec-13 04:23N 14°38' W 017°20'0 0.0
2016-Dec-13 01:05N 14°38' W 017°20'0 0.0
2016-Dec-13 00:29N 14°38' W 017°20'0 0.0
2016-Dec-12 22:23N 14°38' W 017°20'0 0.0
2016-Dec-12 21:11N 14°38' W 017°20'0 0.0
2016-Dec-12 20:26N 14°38' W 017°20'0 0.0
2016-Dec-12 19:11N 14°38' W 017°20'1 0.1
2016-Dec-12 11:26N 14°38' W 017°21'  
2016-Dec-10 01:08N 26°54' W 014°34'1015.4
2016-Dec-10 00:29N 27°01' W 014°27'1515.9
2016-Dec-09 23:34N 27°13' W 014°16'1615.8
2016-Dec-09 22:33N 27°24' W 014°05'1615.8
2016-Dec-09 21:33N 27°36' W 013°53'1615.7
2016-Dec-09 20:34N 27°48' W 013°42'1515.4
2016-Dec-09 19:34N 28°01' W 013°31'1515.3
2016-Dec-09 18:34N 28°14' W 013°22'59616.1
2016-Dec-08 05:34N 35°55' W 005°56'1818.0
2016-Dec-08 04:34N 35°58' W 005°34'1312.6
2016-Dec-08 03:34N 36°08' W 005°24'1 1.5
2016-Dec-08 02:34N 36°08' W 005°26'0 0.0
2016-Dec-08 01:29N 36°08' W 005°26'0 0.0
2016-Dec-07 22:23N 36°08' W 005°26'0 0.0
2016-Dec-07 21:23N 36°08' W 005°26'0 0.0
2016-Dec-07 20:11N 36°08' W 005°26'0 0.0
2016-Dec-07 18:23N 36°08' W 005°26'0 0.0
2016-Dec-07 14:08N 36°08' W 005°26'0 0.0
2016-Dec-07 07:14N 36°08' W 005°26'0 0.5
2016-Dec-07 06:29N 36°09' W 005°26'4 4.1
2016-Dec-07 05:33N 36°05' W 005°24'0 0.1
2016-Dec-07 04:33N 36°05' W 005°24'0 0.2
2016-Dec-07 03:30N 36°05' W 005°24'0 0.1
2016-Dec-07 02:27N 36°05' W 005°24'0 0.0
2016-Dec-07 01:33N 36°05' W 005°24'0 0.2
2016-Dec-07 00:24N 36°05' W 005°24'0 0.0
2016-Dec-06 23:30N 36°05' W 005°24'0 0.0
2016-Dec-06 22:33N 36°05' W 005°24'0 0.1
2016-Dec-06 21:33N 36°05' W 005°24'0 0.0
2016-Dec-06 20:33N 36°05' W 005°24'0 0.1
2016-Dec-06 18:33N 36°05' W 005°24'0 0.0
2016-Dec-06 16:15N 36°05' W 005°24'0 0.3
2016-Dec-06 15:23N 36°05' W 005°24'0 0.0
2016-Dec-06 14:18N 36°05' W 005°24'0 0.0
2016-Dec-06 13:30N 36°05' W 005°24'0 0.1
2016-Dec-06 11:12N 36°05' W 005°24'0 0.0
2016-Dec-06 10:24N 36°05' W 005°24'0 0.1
2016-Dec-06 09:30N 36°05' W 005°24'0 0.1
2016-Dec-06 08:06N 36°05' W 005°24'0 0.0
2016-Dec-06 05:33N 36°05' W 005°24'0 0.0
2016-Dec-06 04:27N 36°05' W 005°24'0 0.1
2016-Dec-06 03:12N 36°05' W 005°24'  

Dump ship's entire track history